Time;durP1;ratioP1;P1;durP2;ratioP2;P2;SDS_P1;SDS_P2;PMS_P1;PMS_P2;Temp;Humidity;BMP_temperature;BMP_pressure;BME280_temperature;BME280_humidity;BME280_pressure;Samples;Min_cycle;Max_cycle;Signal;HPM_P1;HPM_P2
2022/07/06 00:02:18;;;;;;;7.20;2.60;;;;;;;;;;5001922;28;20100;-63
2022/07/06 00:04:44;;;;;;;12.43;2.65;;;;;;;;;;5001341;28;20193;-63
2022/07/06 00:07:09;;;;;;;12.45;2.90;;;;;;;;;;4999920;28;20129;-63
2022/07/06 00:09:35;;;;;;;8.90;2.78;;;;;;;;;;5001216;28;20080;-65
2022/07/06 00:12:01;;;;;;;12.60;2.95;;;;;;;;;;5002166;28;20048;-66
2022/07/06 00:14:27;;;;;;;11.90;3.10;;;;;;;;;;5004510;28;20125;-66
2022/07/06 00:16:53;;;;;;;11.10;3.20;;;;;;;;;;5004738;28;20085;-65
2022/07/06 00:19:19;;;;;;;8.40;2.80;;;;;;;;;;5004305;28;20069;-67
2022/07/06 00:21:45;;;;;;;6.90;3.20;;;;;;;;;;5001427;28;20058;-64
2022/07/06 00:24:11;;;;;;;9.65;3.53;;;;;;;;;;4999440;28;20053;-63
2022/07/06 00:26:37;;;;;;;9.68;3.25;;;;;;;;;;5003929;28;20042;-62
2022/07/06 00:29:03;;;;;;;7.70;3.15;;;;;;;;;;5003617;28;20100;-63
2022/07/06 00:31:28;;;;;;;9.10;3.60;;;;;;;;;;5001343;28;20503;-63
2022/07/06 00:33:54;;;;;;;11.90;3.70;;;;;;;;;;5000524;28;20057;-64
2022/07/06 00:36:20;;;;;;;8.02;3.50;;;;;;;;;;5005774;28;20050;-64
2022/07/06 00:38:46;;;;;;;9.82;3.30;;;;;;;;;;5004952;28;20096;-64
2022/07/06 00:41:13;;;;;;;9.18;3.97;;;;;;;;;;5002352;28;20236;-64
2022/07/06 00:43:55;;;;;;;8.93;3.40;;;;;;;;;;4999959;28;20049;-65
2022/07/06 00:46:28;;;;;;;13.07;4.22;;;;;;;;;;5001634;28;20520;-64
2022/07/06 00:48:54;;;;;;;13.38;3.65;;;;;;;;;;5002104;28;20054;-63
2022/07/06 00:51:23;;;;;;;10.73;3.67;;;;;;;;;;5001448;28;20128;-64
2022/07/06 00:53:49;;;;;;;10.70;3.80;;;;;;;;;;4999191;28;20116;-65
2022/07/06 00:56:15;;;;;;;8.82;3.67;;;;;;;;;;5001625;28;20495;-63
2022/07/06 00:58:41;;;;;;;10.38;3.55;;;;;;;;;;4996298;28;20056;-63
2022/07/06 01:01:07;;;;;;;9.48;4.32;;;;;;;;;;5002091;28;20048;-62
2022/07/06 01:03:33;;;;;;;15.35;3.60;;;;;;;;;;5000193;28;20399;-62
2022/07/06 01:05:59;;;;;;;11.85;3.75;;;;;;;;;;5002661;28;20049;-62
2022/07/06 01:08:26;;;;;;;9.48;4.13;;;;;;;;;;5001863;28;20054;-63
2022/07/06 01:10:52;;;;;;;11.02;3.47;;;;;;;;;;5000434;28;20100;-63
2022/07/06 01:13:18;;;;;;;15.63;3.70;;;;;;;;;;4997998;28;20045;-63
2022/07/06 01:15:44;;;;;;;12.10;3.40;;;;;;;;;;4999363;28;20784;-63
2022/07/06 01:18:11;;;;;;;12.73;3.67;;;;;;;;;;5000594;28;20050;-61
2022/07/06 01:20:37;;;;;;;9.20;3.72;;;;;;;;;;4998143;28;20056;-63
2022/07/06 01:23:03;;;;;;;12.45;3.28;;;;;;;;;;4998995;28;20081;-63
2022/07/06 01:25:29;;;;;;;14.95;3.90;;;;;;;;;;5000507;28;20498;-62
2022/07/06 01:27:55;;;;;;;8.90;4.07;;;;;;;;;;5000070;28;20061;-62
2022/07/06 01:30:21;;;;;;;9.07;3.75;;;;;;;;;;4999899;28;20459;-62
2022/07/06 01:32:47;;;;;;;10.80;3.78;;;;;;;;;;4998793;28;20048;-62
2022/07/06 01:35:14;;;;;;;8.57;3.80;;;;;;;;;;5005198;28;20050;-63
2022/07/06 01:37:41;;;;;;;8.38;3.45;;;;;;;;;;5003753;28;20499;-64
2022/07/06 01:40:09;;;;;;;12.63;4.22;;;;;;;;;;5004681;28;20091;-63
2022/07/06 01:42:35;;;;;;;10.68;3.60;;;;;;;;;;5002259;28;20387;-64
2022/07/06 01:45:03;;;;;;;10.07;3.70;;;;;;;;;;5004880;28;20125;-63
2022/07/06 01:47:29;;;;;;;21.05;4.45;;;;;;;;;;5002594;28;20050;-63
2022/07/06 01:49:59;;;;;;;11.57;4.40;;;;;;;;;;5002507;28;20053;-62
2022/07/06 01:52:26;;;;;;;11.73;4.43;;;;;;;;;;5001885;28;20058;-64
2022/07/06 01:54:52;;;;;;;14.93;4.95;;;;;;;;;;5004426;28;20049;-64
2022/07/06 01:57:17;;;;;;;15.05;4.43;;;;;;;;;;5004758;28;20073;-64
2022/07/06 01:59:43;;;;;;;11.25;4.30;;;;;;;;;;5004713;28;20089;-63
2022/07/06 02:02:09;;;;;;;13.07;4.57;;;;;;;;;;5004387;28;20160;-64
2022/07/06 02:04:35;;;;;;;17.30;4.97;;;;;;;;;;5004710;28;20384;-62
2022/07/06 02:07:01;;;;;;;11.32;4.50;;;;;;;;;;5004190;28;20096;-61
2022/07/06 02:09:27;;;;;;;10.52;4.53;;;;;;;;;;5005357;28;20411;-63
2022/07/06 02:11:53;;;;;;;12.27;5.03;;;;;;;;;;5002859;28;20061;-63
2022/07/06 02:14:19;;;;;;;10.85;4.85;;;;;;;;;;5002791;28;20046;-63
2022/07/06 02:16:45;;;;;;;15.82;5.90;;;;;;;;;;5004785;28;20061;-63
2022/07/06 02:19:11;;;;;;;11.27;4.72;;;;;;;;;;5005836;28;20212;-63
2022/07/06 02:21:37;;;;;;;10.82;4.75;;;;;;;;;;5003071;28;20054;-63
2022/07/06 02:24:03;;;;;;;12.48;4.43;;;;;;;;;;5001136;28;20091;-62
2022/07/06 02:26:28;;;;;;;14.27;5.53;;;;;;;;;;5004383;28;20065;-64
2022/07/06 02:28:54;;;;;;;16.55;6.03;;;;;;;;;;5003651;28;20112;-62
2022/07/06 02:31:20;;;;;;;11.93;5.00;;;;;;;;;;5003244;28;20052;-63
2022/07/06 02:33:46;;;;;;;9.38;5.28;;;;;;;;;;4999750;28;20046;-65
2022/07/06 02:36:12;;;;;;;10.60;4.72;;;;;;;;;;5001244;28;20079;-63
2022/07/06 02:38:37;;;;;;;12.68;5.18;;;;;;;;;;5002814;28;20487;-64
2022/07/06 02:41:03;;;;;;;12.30;5.13;;;;;;;;;;5003794;28;20046;-62
2022/07/06 02:43:29;;;;;;;16.85;5.40;;;;;;;;;;4999042;28;20757;-64
2022/07/06 02:45:55;;;;;;;12.63;5.45;;;;;;;;;;5004103;28;20050;-63
2022/07/06 02:48:21;;;;;;;11.55;4.88;;;;;;;;;;5004442;28;20060;-63
2022/07/06 02:50:47;;;;;;;12.18;5.07;;;;;;;;;;5004097;28;20430;-63
2022/07/06 02:53:13;;;;;;;9.07;4.70;;;;;;;;;;5000713;28;20037;-64
2022/07/06 02:55:39;;;;;;;12.43;5.22;;;;;;;;;;5003837;28;20069;-61
2022/07/06 02:58:05;;;;;;;12.05;5.75;;;;;;;;;;5002855;28;20050;-64
2022/07/06 03:00:31;;;;;;;14.82;5.55;;;;;;;;;;5004307;28;20046;-62
2022/07/06 03:02:57;;;;;;;13.43;5.40;;;;;;;;;;4999884;28;20054;-64
2022/07/06 03:05:23;;;;;;;15.50;6.38;;;;;;;;;;5002429;28;20066;-63
2022/07/06 03:07:48;;;;;;;12.43;5.28;;;;;;;;;;5003234;28;20061;-61
2022/07/06 03:10:14;;;;;;;17.00;5.65;;;;;;;;;;5004429;28;20042;-63
2022/07/06 03:12:40;;;;;;;17.23;5.93;;;;;;;;;;5002491;28;20058;-65
2022/07/06 03:15:09;;;;;;;15.32;5.72;;;;;;;;;;5004026;28;20052;-63
2022/07/06 03:17:36;;;;;;;11.25;5.53;;;;;;;;;;5003493;28;20135;-64
2022/07/06 03:20:04;;;;;;;7.63;5.30;;;;;;;;;;5005714;28;20065;-63
2022/07/06 03:22:30;;;;;;;13.98;5.85;;;;;;;;;;5003156;28;20077;-63
2022/07/06 03:24:56;;;;;;;12.23;5.43;;;;;;;;;;5005778;28;20046;-63
2022/07/06 03:27:22;;;;;;;13.88;5.45;;;;;;;;;;5001719;28;20054;-62
2022/07/06 03:29:47;;;;;;;15.18;6.10;;;;;;;;;;5003206;28;20450;-62
2022/07/06 03:32:13;;;;;;;13.93;6.07;;;;;;;;;;4999413;28;20491;-61
2022/07/06 03:34:39;;;;;;;15.10;6.20;;;;;;;;;;5001892;28;20042;-62
2022/07/06 03:37:06;;;;;;;14.32;5.88;;;;;;;;;;5003013;28;20054;-64
2022/07/06 03:39:32;;;;;;;11.70;5.55;;;;;;;;;;5002616;28;20104;-63
2022/07/06 03:41:58;;;;;;;19.98;5.85;;;;;;;;;;5003175;28;20049;-63
2022/07/06 03:44:24;;;;;;;11.93;5.95;;;;;;;;;;4997547;28;20060;-63
2022/07/06 03:46:51;;;;;;;16.27;6.32;;;;;;;;;;5000853;28;20122;-64
2022/07/06 03:49:17;;;;;;;12.95;5.45;;;;;;;;;;5001097;28;20487;-63
2022/07/06 03:51:42;;;;;;;17.25;6.15;;;;;;;;;;5001894;28;20046;-62
2022/07/06 03:54:08;;;;;;;14.23;6.28;;;;;;;;;;4999882;28;20115;-61
2022/07/06 03:56:34;;;;;;;11.95;6.28;;;;;;;;;;5002597;28;20115;-63
2022/07/06 03:59:01;;;;;;;15.43;6.20;;;;;;;;;;5001405;28;20076;-63
2022/07/06 04:01:29;;;;;;;12.93;5.65;;;;;;;;;;5002537;28;20064;-63
2022/07/06 04:03:56;;;;;;;21.65;6.35;;;;;;;;;;5000924;28;20080;-61
2022/07/06 04:06:22;;;;;;;21.08;6.32;;;;;;;;;;4996992;28;20061;-63
2022/07/06 04:08:48;;;;;;;14.57;6.30;;;;;;;;;;4999442;28;20403;-63
2022/07/06 04:11:14;;;;;;;16.33;6.05;;;;;;;;;;5002246;28;20065;-64
2022/07/06 04:13:40;;;;;;;11.73;6.28;;;;;;;;;;4998489;28;20466;-64
2022/07/06 04:16:07;;;;;;;14.27;6.78;;;;;;;;;;4999204;28;20065;-63
2022/07/06 04:18:33;;;;;;;12.57;5.68;;;;;;;;;;5002557;28;20515;-64
2022/07/06 04:20:58;;;;;;;16.05;5.68;;;;;;;;;;5001455;28;20875;-64
2022/07/06 04:23:24;;;;;;;12.23;5.88;;;;;;;;;;4998433;28;20124;-62
2022/07/06 04:25:50;;;;;;;14.98;6.13;;;;;;;;;;5000094;28;20133;-62
2022/07/06 04:28:16;;;;;;;14.57;5.90;;;;;;;;;;4998934;28;20136;-66
2022/07/06 04:30:42;;;;;;;14.73;6.47;;;;;;;;;;5000053;28;20092;-64
2022/07/06 04:33:08;;;;;;;15.00;5.90;;;;;;;;;;4996528;28;20137;-61
2022/07/06 04:35:34;;;;;;;12.90;5.95;;;;;;;;;;5002944;28;20050;-62
2022/07/06 04:38:00;;;;;;;14.45;6.45;;;;;;;;;;5003030;28;20476;-65
2022/07/06 04:40:26;;;;;;;12.43;6.63;;;;;;;;;;5002400;28;20045;-63
2022/07/06 04:42:52;;;;;;;12.52;6.22;;;;;;;;;;4997810;28;20261;-65
2022/07/06 04:45:18;;;;;;;17.95;7.10;;;;;;;;;;5002706;28;20108;-66
2022/07/06 04:47:44;;;;;;;17.40;6.40;;;;;;;;;;5000384;28;20507;-63
2022/07/06 04:50:11;;;;;;;13.35;6.57;;;;;;;;;;5000103;28;20046;-65
2022/07/06 04:52:37;;;;;;;12.27;6.68;;;;;;;;;;4999283;28;20077;-65
2022/07/06 04:55:05;;;;;;;13.30;7.43;;;;;;;;;;5000405;28;20058;-67
2022/07/06 04:57:32;;;;;;;15.55;7.43;;;;;;;;;;5000535;28;20058;-67
2022/07/06 04:59:57;;;;;;;17.25;8.70;;;;;;;;;;5001427;28;20104;-64
2022/07/06 05:02:24;;;;;;;19.63;7.80;;;;;;;;;;4997665;28;20129;-66
2022/07/06 05:04:50;;;;;;;19.88;7.47;;;;;;;;;;5000504;28;20505;-65
2022/07/06 05:07:15;;;;;;;20.63;8.25;;;;;;;;;;5000711;28;20164;-63
2022/07/06 05:09:41;;;;;;;17.88;7.47;;;;;;;;;;5007601;28;20057;-66
2022/07/06 05:12:08;;;;;;;40.05;9.35;;;;;;;;;;5004871;28;20439;-69
2022/07/06 05:14:34;;;;;;;34.92;9.40;;;;;;;;;;5001477;28;20128;-64
2022/07/06 05:17:00;;;;;;;28.08;8.13;;;;;;;;;;5003208;28;20045;-67
2022/07/06 05:19:26;;;;;;;30.60;8.50;;;;;;;;;;5006226;28;20850;-66
2022/07/06 05:21:51;;;;;;;24.15;7.40;;;;;;;;;;5007973;28;20061;-65
2022/07/06 05:24:18;;;;;;;18.27;8.13;;;;;;;;;;5001458;28;20487;-65
2022/07/06 05:26:45;;;;;;;23.42;8.18;;;;;;;;;;5004662;28;20054;-65
2022/07/06 05:29:11;;;;;;;26.63;7.90;;;;;;;;;;5003876;28;20045;-65
2022/07/06 05:31:37;;;;;;;22.23;7.63;;;;;;;;;;5005612;28;20054;-63
2022/07/06 05:34:03;;;;;;;19.95;8.15;;;;;;;;;;4999932;28;20402;-66
2022/07/06 05:36:28;;;;;;;20.77;7.80;;;;;;;;;;5005956;28;20058;-64
2022/07/06 05:38:54;;;;;;;21.02;7.85;;;;;;;;;;5002924;28;20096;-65
2022/07/06 05:41:20;;;;;;;20.58;7.50;;;;;;;;;;5004195;28;20662;-64
2022/07/06 05:43:46;;;;;;;25.25;8.15;;;;;;;;;;5000864;28;20080;-63
2022/07/06 05:46:12;;;;;;;21.08;7.18;;;;;;;;;;5005932;28;20049;-64
2022/07/06 05:51:22;;;;;;;17.65;7.50;;;;;;;;;;5003229;28;20639;-64
2022/07/06 05:53:48;;;;;;;26.60;7.95;;;;;;;;;;5002872;28;20042;-64
2022/07/06 05:56:14;;;;;;;26.55;7.50;;;;;;;;;;4999408;28;20410;-62
2022/07/06 05:58:40;;;;;;;21.48;7.43;;;;;;;;;;4997272;28;20701;-65
2022/07/06 06:01:09;;;;;;;19.77;6.85;;;;;;;;;;5002467;28;20060;-65
2022/07/06 06:03:35;;;;;;;20.20;7.45;;;;;;;;;;5006753;28;20081;-64
2022/07/06 06:06:01;;;;;;;26.45;6.47;;;;;;;;;;5007702;28;20061;-64
2022/07/06 06:08:27;;;;;;;20.73;7.28;;;;;;;;;;5003018;28;20050;-69
2022/07/06 06:10:53;;;;;;;25.67;7.28;;;;;;;;;;5004969;28;20042;-64
2022/07/06 06:13:19;;;;;;;23.23;6.40;;;;;;;;;;5007280;28;20050;-68
2022/07/06 06:15:45;;;;;;;14.77;5.55;;;;;;;;;;5001788;28;20054;-63
2022/07/06 06:18:12;;;;;;;24.33;7.70;;;;;;;;;;5006426;28;20439;-64
2022/07/06 06:20:38;;;;;;;18.20;6.45;;;;;;;;;;5010509;28;20133;-64
2022/07/06 06:23:04;;;;;;;24.17;6.68;;;;;;;;;;5007104;28;20137;-65
2022/07/06 06:25:35;;;;;;;17.15;5.50;;;;;;;;;;5004081;28;20507;-64
2022/07/06 06:28:05;;;;;;;;;;;;;;;;;;5007431;28;21693;-64
2022/07/06 06:30:32;;;;;;;19.60;5.32;;;;;;;;;;5008097;28;19928;-64
2022/07/06 06:33:14;;;;;;;20.13;5.30;;;;;;;;;;5004777;28;20434;-64
2022/07/06 06:35:51;;;;;;;15.60;4.80;;;;;;;;;;4995526;28;20056;-66
2022/07/06 06:38:19;;;;;;;22.52;4.78;;;;;;;;;;5005700;28;20427;-64
2022/07/06 06:40:45;;;;;;;23.35;5.30;;;;;;;;;;5005490;28;20107;-67
2022/07/06 06:43:12;;;;;;;22.55;5.10;;;;;;;;;;5007739;28;20045;-66
2022/07/06 06:45:38;;;;;;;18.77;4.70;;;;;;;;;;5009802;28;20038;-70
2022/07/06 06:48:04;;;;;;;14.95;4.10;;;;;;;;;;5007973;28;20124;-65
2022/07/06 06:50:30;;;;;;;22.20;3.95;;;;;;;;;;5005130;28;20412;-64
2022/07/06 06:52:56;;;;;;;13.38;3.55;;;;;;;;;;5009882;28;20121;-65
2022/07/06 06:55:22;;;;;;;16.27;4.05;;;;;;;;;;4998878;28;20330;-65
2022/07/06 06:57:48;;;;;;;18.33;3.70;;;;;;;;;;5002955;28;20064;-67
2022/07/06 07:00:14;;;;;;;16.23;4.22;;;;;;;;;;4998061;28;20089;-65
2022/07/06 07:02:40;;;;;;;14.23;3.40;;;;;;;;;;5007250;28;20069;-65
2022/07/06 07:05:06;;;;;;;20.95;3.63;;;;;;;;;;5009961;28;20140;-65
2022/07/06 07:07:33;;;;;;;18.45;3.70;;;;;;;;;;5008175;28;20487;-64
2022/07/06 07:09:59;;;;;;;13.13;3.20;;;;;;;;;;5018730;28;20545;-65
2022/07/06 07:12:25;;;;;;;12.88;3.15;;;;;;;;;;5007299;28;20057;-63
2022/07/06 07:14:50;;;;;;;20.02;4.05;;;;;;;;;;5008404;28;20045;-63
2022/07/06 07:17:17;;;;;;;19.05;3.67;;;;;;;;;;5002599;28;20042;-64
2022/07/06 07:19:43;;;;;;;15.98;3.40;;;;;;;;;;5008872;28;20052;-66
2022/07/06 07:22:08;;;;;;;17.38;3.63;;;;;;;;;;4999190;28;20054;-68
2022/07/06 07:24:34;;;;;;;18.30;4.00;;;;;;;;;;5003020;28;20042;-69
2022/07/06 07:27:00;;;;;;;22.05;7.70;;;;;;;;;;5008563;28;20107;-66
2022/07/06 07:29:26;;;;;;;23.45;4.43;;;;;;;;;;5006792;28;20465;-65
2022/07/06 07:31:52;;;;;;;10.43;3.75;;;;;;;;;;5007443;28;20038;-66
2022/07/06 07:34:18;;;;;;;20.77;3.50;;;;;;;;;;5004574;28;20042;-66
2022/07/06 07:36:43;;;;;;;15.15;3.95;;;;;;;;;;5008726;28;20424;-66
2022/07/06 07:39:09;;;;;;;16.63;3.38;;;;;;;;;;5001399;28;20057;-65
2022/07/06 07:41:35;;;;;;;25.95;4.03;;;;;;;;;;5010620;28;20046;-66
2022/07/06 07:44:01;;;;;;;16.15;3.92;;;;;;;;;;5004136;28;20042;-65
2022/07/06 07:46:27;;;;;;;14.35;3.30;;;;;;;;;;5006004;28;20125;-68
2022/07/06 07:48:53;;;;;;;14.55;3.30;;;;;;;;;;5007451;28;20140;-66
2022/07/06 07:51:19;;;;;;;25.35;4.07;;;;;;;;;;5001773;28;20514;-65
2022/07/06 07:53:45;;;;;;;20.52;4.15;;;;;;;;;;5000800;28;20056;-68
2022/07/06 07:56:11;;;;;;;18.45;3.65;;;;;;;;;;5010783;28;20490;-68
2022/07/06 07:58:37;;;;;;;17.23;3.65;;;;;;;;;;5012014;28;20141;-66
2022/07/06 08:01:04;;;;;;;20.75;3.55;;;;;;;;;;4999525;28;20060;-66
2022/07/06 08:03:31;;;;;;;17.25;3.92;;;;;;;;;;5005780;28;20058;-66
2022/07/06 08:05:58;;;;;;;13.32;3.22;;;;;;;;;;5001366;28;20258;-70
2022/07/06 08:08:25;;;;;;;15.13;2.92;;;;;;;;;;5000658;28;20110;-68
2022/07/06 08:10:51;;;;;;;11.93;3.13;;;;;;;;;;5005878;28;20051;-66
2022/07/06 08:13:16;;;;;;;16.27;3.35;;;;;;;;;;5004875;28;20434;-68
2022/07/06 08:15:42;;;;;;;13.05;3.40;;;;;;;;;;5003877;28;20125;-66
2022/07/06 08:18:09;;;;;;;15.05;3.40;;;;;;;;;;5002294;28;20049;-65
2022/07/06 08:20:36;;;;;;;15.77;3.78;;;;;;;;;;5003989;28;20046;-65
2022/07/06 08:23:03;;;;;;;16.17;3.45;;;;;;;;;;5004724;28;20046;-66
2022/07/06 08:25:29;;;;;;;13.18;3.45;;;;;;;;;;4996956;28;20563;-66
2022/07/06 08:27:55;;;;;;;12.23;3.55;;;;;;;;;;5002905;28;20045;-66
2022/07/06 08:30:21;;;;;;;24.27;3.50;;;;;;;;;;5007256;28;20092;-66
2022/07/06 08:32:47;;;;;;;19.38;3.55;;;;;;;;;;4998877;28;20084;-74
2022/07/06 08:35:13;;;;;;;20.00;4.18;;;;;;;;;;5008896;28;20038;-65
2022/07/06 08:37:39;;;;;;;15.40;3.90;;;;;;;;;;5001163;28;20052;-70
2022/07/06 08:40:06;;;;;;;17.67;3.72;;;;;;;;;;5003449;28;20049;-66
2022/07/06 08:42:33;;;;;;;13.55;3.97;;;;;;;;;;5005010;28;20049;-66
2022/07/06 08:45:01;;;;;;;20.67;3.75;;;;;;;;;;4996895;28;20047;-65
2022/07/06 08:47:28;;;;;;;19.67;5.18;;;;;;;;;;5009467;28;21394;-66
2022/07/06 08:49:54;;;;;;;11.85;3.47;;;;;;;;;;5006587;28;20456;-66
2022/07/06 08:52:22;;;;;;;14.60;3.53;;;;;;;;;;4998792;28;20045;-66
2022/07/06 08:54:48;;;;;;;16.33;3.60;;;;;;;;;;4997822;28;20061;-67
2022/07/06 08:57:14;;;;;;;17.73;3.70;;;;;;;;;;5003433;28;20056;-67
2022/07/06 08:59:40;;;;;;;17.02;3.88;;;;;;;;;;5003885;28;20046;-69
2022/07/06 09:02:06;;;;;;;19.48;3.35;;;;;;;;;;5001042;28;20545;-67
2022/07/06 09:04:33;;;;;;;14.40;3.15;;;;;;;;;;4998153;28;20422;-66
2022/07/06 09:06:59;;;;;;;17.60;3.40;;;;;;;;;;5004132;28;20050;-67
2022/07/06 09:09:28;;;;;;;15.15;3.20;;;;;;;;;;4997872;28;20438;-67
2022/07/06 09:11:54;;;;;;;19.85;3.30;;;;;;;;;;5000152;28;20949;-68
2022/07/06 09:14:20;;;;;;;21.40;4.38;;;;;;;;;;5007538;28;20060;-66
2022/07/06 09:16:51;;;;;;;23.63;3.85;;;;;;;;;;4997541;28;20132;-68
2022/07/06 09:19:17;;;;;;;26.67;3.92;;;;;;;;;;4991221;28;20115;-67
2022/07/06 09:21:43;;;;;;;20.13;4.43;;;;;;;;;;4996931;28;20046;-67
2022/07/06 09:24:11;;;;;;;16.77;3.83;;;;;;;;;;4990441;28;20504;-66
2022/07/06 09:26:37;;;;;;;18.42;3.72;;;;;;;;;;4995133;28;20042;-66
2022/07/06 09:29:05;;;;;;;21.42;4.30;;;;;;;;;;4990335;28;20047;-66
2022/07/06 09:31:31;;;;;;;15.13;3.25;;;;;;;;;;4992588;28;20057;-68
2022/07/06 09:34:05;;;;;;;18.00;4.28;;;;;;;;;;4990942;28;20038;-68
2022/07/06 09:36:41;;;;;;;15.63;3.88;;;;;;;;;;4991456;28;20484;-68
2022/07/06 09:39:19;;;;;;;14.48;3.67;;;;;;;;;;4998638;28;20046;-65
2022/07/06 09:41:47;;;;;;;18.60;4.82;;;;;;;;;;4995685;28;20446;-67
2022/07/06 09:44:18;;;;;;;18.25;3.85;;;;;;;;;;5001121;28;20042;-66
2022/07/06 09:46:46;;;;;;;12.27;3.53;;;;;;;;;;4996471;28;20043;-66
2022/07/06 09:49:12;;;;;;;12.88;3.90;;;;;;;;;;4993774;28;20137;-67
2022/07/06 09:51:38;;;;;;;13.77;4.20;;;;;;;;;;4994409;28;20110;-66
2022/07/06 09:54:11;;;;;;;20.13;3.95;;;;;;;;;;5000244;28;20108;-69
2022/07/06 09:56:42;;;;;;;11.52;3.33;;;;;;;;;;4997881;28;20049;-66
2022/07/06 09:59:14;;;;;;;14.68;4.13;;;;;;;;;;5003194;28;20050;-67
2022/07/06 10:01:41;;;;;;;16.13;3.53;;;;;;;;;;5004047;28;20489;-69
2022/07/06 10:04:08;;;;;;;16.10;3.40;;;;;;;;;;4997388;28;20062;-67
2022/07/06 10:06:35;;;;;;;13.82;3.72;;;;;;;;;;5004676;28;20042;-66
2022/07/06 10:09:05;;;;;;;10.20;2.78;;;;;;;;;;5001169;28;20145;-69
2022/07/06 10:11:34;;;;;;;19.60;3.63;;;;;;;;;;5009151;28;20070;-66
2022/07/06 10:14:03;;;;;;;13.40;3.22;;;;;;;;;;5007354;28;20073;-67
2022/07/06 10:16:29;;;;;;;11.45;2.67;;;;;;;;;;5000771;28;20057;-68
2022/07/06 10:18:56;;;;;;;14.95;3.30;;;;;;;;;;5005663;28;20214;-68
2022/07/06 10:21:22;;;;;;;13.13;2.88;;;;;;;;;;5011900;28;20413;-66
2022/07/06 10:23:53;;;;;;;15.20;3.15;;;;;;;;;;5007262;28;20065;-64
2022/07/06 10:26:22;;;;;;;16.65;3.97;;;;;;;;;;5006433;28;20050;-69
2022/07/06 10:28:49;;;;;;;10.95;2.72;;;;;;;;;;5001180;28;20487;-67
2022/07/06 10:31:16;;;;;;;17.92;3.38;;;;;;;;;;5013170;28;20061;-70
2022/07/06 10:33:42;;;;;;;15.07;3.22;;;;;;;;;;5007216;28;20085;-70
2022/07/06 10:36:10;;;;;;;12.70;2.83;;;;;;;;;;5006668;28;20063;-71
2022/07/06 10:38:35;;;;;;;17.63;3.00;;;;;;;;;;5000298;28;20171;-72
2022/07/06 10:41:09;;;;;;;15.30;3.33;;;;;;;;;;5002955;28;20053;-66
2022/07/06 10:43:36;;;;;;;9.13;2.70;;;;;;;;;;5004352;28;20045;-66
2022/07/06 10:46:11;;;;;;;13.30;3.28;;;;;;;;;;5001600;28;20099;-75
2022/07/06 10:48:39;;;;;;;14.35;2.85;;;;;;;;;;5008867;28;20438;-70
2022/07/06 10:51:05;;;;;;;12.65;2.50;;;;;;;;;;5007687;28;20060;-70
2022/07/06 10:53:34;;;;;;;11.65;2.70;;;;;;;;;;5002137;28;20569;-76
2022/07/06 10:56:04;;;;;;;16.17;3.70;;;;;;;;;;5008095;28;20052;-76
2022/07/06 10:58:47;;;;;;;11.80;3.30;;;;;;;;;;5009202;28;20050;-70
2022/07/06 11:01:15;;;;;;;15.20;3.03;;;;;;;;;;5016832;28;20073;-74
2022/07/06 11:04:05;;;;;;;11.07;2.97;;;;;;;;;;5002503;28;20046;-71
2022/07/06 11:06:40;;;;;;;10.07;2.67;;;;;;;;;;4996383;28;20057;-66
2022/07/06 11:09:10;;;;;;;15.80;2.92;;;;;;;;;;5011817;28;20046;-72
2022/07/06 11:11:36;;;;;;;15.95;2.85;;;;;;;;;;5007869;28;20173;-68
2022/07/06 11:14:23;;;;;;;12.43;2.63;;;;;;;;;;5009418;28;20557;-70
2022/07/06 11:16:49;;;;;;;12.27;2.70;;;;;;;;;;5000343;28;20515;-68
2022/07/06 11:19:25;;;;;;;9.80;2.70;;;;;;;;;;5004508;28;20073;-76
2022/07/06 11:21:56;;;;;;;15.15;2.95;;;;;;;;;;5008737;28;20081;-72
2022/07/06 11:24:27;;;;;;;13.25;3.13;;;;;;;;;;5008658;28;20389;-71
2022/07/06 11:26:55;;;;;;;16.63;3.20;;;;;;;;;;5003759;28;20052;-73
2022/07/06 11:29:23;;;;;;;9.60;3.08;;;;;;;;;;5010465;28;20092;-76
2022/07/06 11:31:52;;;;;;;13.63;2.65;;;;;;;;;;5009064;28;20148;-75
2022/07/06 11:34:24;;;;;;;10.00;2.42;;;;;;;;;;5004405;28;20134;-73
2022/07/06 11:37:03;;;;;;;14.82;2.95;;;;;;;;;;4998168;28;20531;-72
2022/07/06 11:39:31;;;;;;;14.13;3.35;;;;;;;;;;5001438;28;20046;-76
2022/07/06 11:41:59;;;;;;;12.20;2.80;;;;;;;;;;4996213;28;20129;-72
2022/07/06 11:44:25;;;;;;;12.32;3.28;;;;;;;;;;4996664;28;20046;-74
2022/07/06 11:46:51;;;;;;;9.20;2.75;;;;;;;;;;5010850;28;20132;-69
2022/07/06 11:49:18;;;;;;;12.23;2.75;;;;;;;;;;4998523;28;20142;-69
2022/07/06 11:51:45;;;;;;;10.05;2.70;;;;;;;;;;4998426;28;20072;-73
2022/07/06 11:54:18;;;;;;;13.25;3.78;;;;;;;;;;5004475;28;20061;-72
2022/07/06 11:56:59;;;;;;;11.68;3.03;;;;;;;;;;5009605;28;20380;-72
2022/07/06 11:59:27;;;;;;;9.18;2.47;;;;;;;;;;5002040;28;20084;-74
2022/07/06 12:02:02;;;;;;;13.27;3.00;;;;;;;;;;5003712;28;20057;-72
2022/07/06 12:04:29;;;;;;;11.55;2.40;;;;;;;;;;5006376;28;20060;-72
2022/07/06 12:07:13;;;;;;;13.70;2.63;;;;;;;;;;5006064;28;20061;-74
2022/07/06 12:09:44;;;;;;;9.70;2.80;;;;;;;;;;5000192;28;20138;-76
2022/07/06 12:12:11;;;;;;;18.88;2.72;;;;;;;;;;5005436;28;20049;-70
2022/07/06 12:14:41;;;;;;;10.32;2.92;;;;;;;;;;5000731;28;20038;-68
2022/07/06 12:17:12;;;;;;;9.57;2.88;;;;;;;;;;5001558;28;20054;-70
2022/07/06 12:19:40;;;;;;;10.40;2.67;;;;;;;;;;5002230;28;20050;-68
2022/07/06 12:22:08;;;;;;;8.68;3.08;;;;;;;;;;5006942;28;20090;-67
2022/07/06 12:24:35;;;;;;;15.82;2.78;;;;;;;;;;5005130;28;20069;-66
2022/07/06 12:27:19;;;;;;;9.65;2.90;;;;;;;;;;5004922;28;20585;-68
2022/07/06 12:29:46;;;;;;;12.52;3.20;;;;;;;;;;5006821;28;20046;-68
2022/07/06 12:32:22;;;;;;;15.90;2.95;;;;;;;;;;5005227;28;20562;-69
2022/07/06 12:35:09;;;;;;;11.50;2.75;;;;;;;;;;5000685;28;20045;-69
2022/07/06 12:37:35;;;;;;;7.43;2.65;;;;;;;;;;5002378;28;20044;-66
2022/07/06 12:40:11;;;;;;;11.40;2.70;;;;;;;;;;5002363;28;20054;-67
2022/07/06 12:42:46;;;;;;;14.23;2.90;;;;;;;;;;5003291;28;20052;-72
2022/07/06 12:45:12;;;;;;;12.65;2.90;;;;;;;;;;4999352;28;20056;-68
2022/07/06 12:47:42;;;;;;;16.63;3.33;;;;;;;;;;5000158;28;20042;-68
2022/07/06 12:50:11;;;;;;;14.10;2.67;;;;;;;;;;5006051;28;20082;-68
2022/07/06 12:52:38;;;;;;;9.55;2.65;;;;;;;;;;5000627;28;20049;-67
2022/07/06 12:55:07;;;;;;;14.82;2.58;;;;;;;;;;5009967;28;20516;-70
2022/07/06 12:57:45;;;;;;;12.52;3.33;;;;;;;;;;5005795;28;20728;-71
2022/07/06 13:00:11;;;;;;;13.77;3.10;;;;;;;;;;4996590;28;20077;-68
2022/07/06 13:02:38;;;;;;;9.70;2.88;;;;;;;;;;5006882;28;20046;-68
2022/07/06 13:05:09;;;;;;;14.88;3.08;;;;;;;;;;5006718;28;20051;-71
2022/07/06 13:07:37;;;;;;;11.93;2.70;;;;;;;;;;5004148;28;20092;-69
2022/07/06 13:10:05;;;;;;;8.73;2.63;;;;;;;;;;5005422;28;20549;-68
2022/07/06 13:12:31;;;;;;;13.32;2.45;;;;;;;;;;5008699;28;20057;-67
2022/07/06 13:14:57;;;;;;;17.55;3.03;;;;;;;;;;5002018;28;20038;-70
2022/07/06 13:17:23;;;;;;;18.92;3.35;;;;;;;;;;5000200;28;20488;-67
2022/07/06 13:19:50;;;;;;;14.88;2.97;;;;;;;;;;5003864;28;20527;-66
2022/07/06 13:22:16;;;;;;;11.73;2.80;;;;;;;;;;5004723;28;20057;-70
2022/07/06 13:24:42;;;;;;;12.90;2.95;;;;;;;;;;5005669;28;20050;-69
2022/07/06 13:27:08;;;;;;;10.50;2.80;;;;;;;;;;4999481;28;20073;-67
2022/07/06 13:29:35;;;;;;;17.45;2.85;;;;;;;;;;5006957;28;20523;-65
2022/07/06 13:32:01;;;;;;;11.35;2.85;;;;;;;;;;5007503;28;20553;-67
2022/07/06 13:34:27;;;;;;;12.82;2.55;;;;;;;;;;5005120;28;20054;-69
2022/07/06 13:36:53;;;;;;;13.88;2.90;;;;;;;;;;5005816;28;20088;-66
2022/07/06 13:39:19;;;;;;;20.00;3.30;;;;;;;;;;5006873;28;20061;-68
2022/07/06 13:41:46;;;;;;;15.80;3.17;;;;;;;;;;5009452;28;20053;-66
2022/07/06 13:44:12;;;;;;;15.50;3.13;;;;;;;;;;5012711;28;20459;-67
2022/07/06 13:46:42;;;;;;;13.25;3.60;;;;;;;;;;5013561;28;20069;-66
2022/07/06 13:49:08;;;;;;;11.27;2.45;;;;;;;;;;5012744;28;20116;-65
2022/07/06 13:51:34;;;;;;;18.40;3.25;;;;;;;;;;5013552;28;20064;-66
2022/07/06 13:54:01;;;;;;;17.27;3.05;;;;;;;;;;5011418;28;20120;-64
2022/07/06 13:56:27;;;;;;;17.45;3.05;;;;;;;;;;5008806;28;20050;-66
2022/07/06 13:58:53;;;;;;;16.45;3.28;;;;;;;;;;5010869;28;20554;-65
2022/07/06 14:01:19;;;;;;;12.05;3.22;;;;;;;;;;5009704;28;20046;-64
2022/07/06 14:03:45;;;;;;;15.13;4.55;;;;;;;;;;5008290;28;20549;-65
2022/07/06 14:06:11;;;;;;;12.40;2.85;;;;;;;;;;5011540;28;20061;-65
2022/07/06 14:08:39;;;;;;;13.18;2.67;;;;;;;;;;5012293;28;20049;-72
2022/07/06 14:11:06;;;;;;;13.73;3.10;;;;;;;;;;5012888;28;20037;-66
2022/07/06 14:13:34;;;;;;;17.30;3.05;;;;;;;;;;5011342;28;20772;-66
2022/07/06 14:16:00;;;;;;;15.20;3.15;;;;;;;;;;5008083;28;20091;-67
2022/07/06 14:18:26;;;;;;;15.10;3.50;;;;;;;;;;5002698;28;20530;-67
2022/07/06 14:20:53;;;;;;;11.35;2.88;;;;;;;;;;5001543;28;20068;-67
2022/07/06 14:23:20;;;;;;;14.93;3.25;;;;;;;;;;5008835;28;20050;-65
2022/07/06 14:25:47;;;;;;;12.07;2.90;;;;;;;;;;5012503;28;20046;-65
2022/07/06 14:28:13;;;;;;;11.27;2.67;;;;;;;;;;5007833;28;20050;-65
2022/07/06 14:30:40;;;;;;;13.63;2.80;;;;;;;;;;5014656;28;20046;-69
2022/07/06 14:33:08;;;;;;;17.33;3.22;;;;;;;;;;5008780;28;20059;-65
2022/07/06 14:35:42;;;;;;;11.27;3.33;;;;;;;;;;5009840;28;20042;-65